Lan Bao Hai — VRPA8 — position and weather

sailwx.info

Track history (hours):
 
Tides and Currents Weather Stations Pressure Air Temp Water Temp Dewpoint Dewpoint Depression Visibility Wind Speed Wind Dir Waves Ship Positions

Lan Bao Hai

Last reported at 2018-Feb-09 02:00 UTC. Time now 2018-Feb-25 23:21 UTC.
Position N 49°55' W 003°10'.
Warning: this ship's position is 16 days out of date.

Length 180 m; draft 10.4 m.

Type: Cargo ship. MMSI: 477713300.

Date/timePositionNaut miles runAvg speedWind from/ knotsBaromVisibWave heightAir tempDewpointWater temp
2018-Feb-09 02:00N 49°55' W 003°10'4 9.0
2018-Feb-09 01:30N 49°57' W 003°04'4 8.0
2018-Feb-09 01:00N 49°59' W 002°59'4 9.0
2018-Feb-09 00:30N 50°00' W 002°52'4611.4
2018-Feb-08 20:30N 50°12' W 001°43'713.8
2018-Feb-08 20:00N 50°14' W 001°33'8112.5
2018-Feb-08 13:30N 50°36' E 000°29'612.1
2018-Feb-08 13:00N 50°38' E 000°38'612.7
2018-Feb-08 12:30N 50°42' E 000°46'713.3
2018-Feb-08 12:00N 50°46' E 000°54'2713.8
2018-Feb-08 10:00N 51°04' E 001°27'1312.6
2018-Feb-08 09:00N 51°12' E 001°42'2911.8
2018-Feb-08 06:30N 51°36' E 002°10'25512.1
2018-Feb-07 09:30N 54°01' E 007°57'613.0
2018-Feb-07 09:00N 54°01' E 008°08'612.3
2018-Feb-07 08:30N 53°60' E 008°19'814.8
2018-Feb-07 08:00N 53°58' E 008°31'713.7
2018-Feb-07 07:30N 53°55' E 008°41'611.8
2018-Feb-07 07:00N 53°50' E 008°48'612.0
2018-Feb-07 06:30N 53°51' E 008°58'5 9.6
2018-Feb-07 06:00N 53°53' E 009°05'2 4.5
2018-Feb-07 05:30N 53°54' E 009°09'0 0.1
2018-Feb-07 05:00N 53°54' E 009°09'1 1.7
2018-Feb-07 04:30N 53°54' E 009°10'1 1.4
2018-Feb-07 03:29N 53°55' E 009°12'0 0.0
2018-Feb-07 02:59N 53°55' E 009°12'0 0.0
2018-Feb-07 02:29N 53°55' E 009°12'0 0.0
2018-Feb-07 01:59N 53°55' E 009°12'0 0.0
2018-Feb-07 01:29N 53°55' E 009°12'0 0.0
2018-Feb-07 00:59N 53°55' E 009°12'0 0.0
2018-Feb-07 00:29N 53°55' E 009°12'0 0.0
2018-Feb-06 23:56N 53°55' E 009°12'0 0.0
2018-Feb-06 23:29N 53°55' E 009°12'0 0.0
2018-Feb-06 22:59N 53°55' E 009°12'0 0.0
2018-Feb-06 22:26N 53°55' E 009°12'0 0.0
2018-Feb-06 21:59N 53°55' E 009°12'0 0.0
2018-Feb-06 21:26N 53°55' E 009°12'0 0.0
2018-Feb-06 20:59N 53°55' E 009°12'0 0.0
2018-Feb-06 20:26N 53°55' E 009°12'0 0.0
2018-Feb-06 19:59N 53°55' E 009°12'0 0.0
2018-Feb-06 19:29N 53°55' E 009°12'0 0.0
2018-Feb-06 18:59N 53°55' E 009°12'0 0.0
2018-Feb-06 18:29N 53°55' E 009°12'0 0.0
2018-Feb-06 17:44N 53°55' E 009°12'0 0.0
2018-Feb-06 17:26N 53°55' E 009°12'0 0.0
2018-Feb-06 16:56N 53°55' E 009°12'0 0.0
2018-Feb-06 16:29N 53°55' E 009°12'0 0.0
2018-Feb-06 15:59N 53°55' E 009°12'0 0.0
2018-Feb-06 15:29N 53°55' E 009°12'0 0.0
2018-Feb-06 14:59N 53°55' E 009°12'0 0.0
2018-Feb-06 14:29N 53°55' E 009°12'0 0.0
2018-Feb-06 13:59N 53°55' E 009°12'0 0.0
2018-Feb-06 13:26N 53°55' E 009°12'0 0.0
2018-Feb-06 12:56N 53°55' E 009°12'0 0.0
2018-Feb-06 12:29N 53°55' E 009°12'0 0.0
2018-Feb-06 11:59N 53°55' E 009°12'0 0.0
2018-Feb-06 11:23N 53°55' E 009°12'0 0.0
2018-Feb-06 10:59N 53°55' E 009°12'0 0.0
2018-Feb-06 10:29N 53°55' E 009°12'0 0.0
2018-Feb-06 09:56N 53°55' E 009°12'0 0.0
2018-Feb-06 09:29N 53°55' E 009°12'0 0.0
2018-Feb-06 08:59N 53°55' E 009°12'0 0.0
2018-Feb-06 08:29N 53°55' E 009°12'0 0.0
2018-Feb-06 07:59N 53°55' E 009°12'0 0.0
2018-Feb-06 07:29N 53°55' E 009°12'0 0.0
2018-Feb-06 06:59N 53°55' E 009°12'0 0.0
2018-Feb-06 06:29N 53°55' E 009°12'0 0.0
2018-Feb-06 05:59N 53°55' E 009°12'0 0.0
2018-Feb-06 05:29N 53°55' E 009°12'0 0.0
2018-Feb-06 04:59N 53°55' E 009°12'0 0.0
2018-Feb-06 04:29N 53°55' E 009°12'0 0.0
2018-Feb-06 03:59N 53°55' E 009°12'0 0.0
2018-Feb-06 03:29N 53°55' E 009°12'0 0.0
2018-Feb-06 02:59N 53°55' E 009°12'0 0.0
2018-Feb-06 02:29N 53°55' E 009°12'0 0.0
2018-Feb-06 01:59N 53°55' E 009°12'0 0.0
2018-Feb-06 01:23N 53°55' E 009°12'0 0.0
2018-Feb-06 00:59N 53°55' E 009°12'0 0.0
2018-Feb-06 00:29N 53°55' E 009°12'0 0.0
2018-Feb-05 23:59N 53°55' E 009°12'0 0.0
2018-Feb-05 23:29N 53°55' E 009°12'0 0.0
2018-Feb-05 22:59N 53°55' E 009°12'0 0.0
2018-Feb-05 22:29N 53°55' E 009°12'0 0.0
2018-Feb-05 21:59N 53°55' E 009°12'0 0.0
2018-Feb-05 21:26N 53°55' E 009°12'0 0.0
2018-Feb-05 20:56N 53°55' E 009°12'0 0.0
2018-Feb-05 20:26N 53°55' E 009°12'0 0.0
2018-Feb-05 19:59N 53°55' E 009°12'0 0.0
2018-Feb-05 19:29N 53°55' E 009°12'0 0.0
2018-Feb-05 18:56N 53°55' E 009°12'0 0.0
2018-Feb-05 18:29N 53°55' E 009°12'0 0.0
2018-Feb-05 17:59N 53°55' E 009°12'0 0.0
2018-Feb-05 17:29N 53°55' E 009°12'0 0.0
2018-Feb-05 16:59N 53°55' E 009°12'0 0.0
2018-Feb-05 15:58N 53°55' E 009°12'0 0.0
2018-Feb-05 15:16N 53°55' E 009°12'0 0.0
2018-Feb-05 14:58N 53°55' E 009°12'0 0.0
2018-Feb-05 14:28N 53°55' E 009°12'0 0.0
2018-Feb-05 13:58N 53°55' E 009°12'0 0.0
2018-Feb-05 13:28N 53°55' E 009°12'0 0.0
2018-Feb-05 12:58N 53°55' E 009°12'0 0.0
2018-Feb-05 12:25N 53°55' E 009°12'0 0.0
2018-Feb-05 11:55N 53°55' E 009°12'0 0.0
2018-Feb-05 11:28N 53°55' E 009°12'0 0.0
2018-Feb-05 10:58N 53°55' E 009°12'0 0.0
2018-Feb-05 10:19N 53°55' E 009°12'0 0.0
2018-Feb-05 09:58N 53°55' E 009°12'0 0.0
2018-Feb-05 09:28N 53°55' E 009°12'0 0.0
2018-Feb-05 08:55N 53°55' E 009°12'0 0.0
2018-Feb-05 08:28N 53°55' E 009°12'0 0.0
2018-Feb-05 07:58N 53°55' E 009°12'0 0.0
2018-Feb-05 07:25N 53°55' E 009°12'0 0.0
2018-Feb-05 06:58N 53°55' E 009°12'0 0.0
2018-Feb-05 06:28N 53°55' E 009°12'0 0.0
2018-Feb-05 05:25N 53°55' E 009°12'0 0.0
2018-Feb-05 04:58N 53°55' E 009°12'0 0.0
2018-Feb-05 04:28N 53°55' E 009°12'0 0.0
2018-Feb-05 03:55N 53°55' E 009°12'0 0.0
2018-Feb-05 03:22N 53°55' E 009°12'0 0.0
2018-Feb-05 02:49N 53°55' E 009°12'0 0.0
2018-Feb-05 02:22N 53°55' E 009°12'0 0.0
2018-Feb-05 01:58N 53°55' E 009°12'0 0.0
2018-Feb-05 01:28N 53°55' E 009°12'0 0.0
2018-Feb-05 00:55N 53°55' E 009°12'0 0.0
2018-Feb-05 00:28N 53°55' E 009°12'0 0.0
2018-Feb-04 23:55N 53°55' E 009°12'0 0.0
2018-Feb-04 23:28N 53°55' E 009°12'0 0.0
2018-Feb-04 22:58N 53°55' E 009°12'0 0.0
2018-Feb-04 22:25N 53°55' E 009°12'0 0.0
2018-Feb-04 21:58N 53°55' E 009°12'0 0.0
2018-Feb-04 21:25N 53°55' E 009°12'0 0.0
2018-Feb-04 20:55N 53°55' E 009°12'0 0.0
2018-Feb-04 19:58N 53°55' E 009°12'0 0.0
2018-Feb-04 19:28N 53°55' E 009°12'0 0.0
2018-Feb-04 18:58N 53°55' E 009°12'0 0.0
2018-Feb-04 18:28N 53°55' E 009°12'0 0.0
2018-Feb-04 17:58N 53°55' E 009°12'0 0.0
2018-Feb-04 17:28N 53°55' E 009°12'0 0.0
2018-Feb-04 15:25N 53°55' E 009°12'0 0.0
2018-Feb-04 14:55N 53°55' E 009°12'0 0.0
2018-Feb-04 14:25N 53°55' E 009°12'0 0.0
2018-Feb-04 13:58N 53°55' E 009°12'0 0.0
2018-Feb-04 13:25N 53°55' E 009°12'0 0.0
2018-Feb-04 12:55N 53°55' E 009°12'0 0.0
2018-Feb-04 12:28N 53°55' E 009°12'0 0.0
2018-Feb-04 11:58N 53°55' E 009°12'0 0.0
2018-Feb-04 11:28N 53°55' E 009°12'0 0.0
2018-Feb-04 09:58N 53°55' E 009°12'0 0.0
2018-Feb-04 08:58N 53°55' E 009°12'0 0.0
2018-Feb-04 08:22N 53°55' E 009°12'0 0.0
2018-Feb-04 07:58N 53°55' E 009°12'0 0.0
2018-Feb-04 07:28N 53°55' E 009°12'0 0.0
2018-Feb-04 06:55N 53°55' E 009°12'0 0.0
2018-Feb-04 06:28N 53°55' E 009°12'0 0.0
2018-Feb-04 05:58N 53°55' E 009°12'0 0.0
2018-Feb-04 05:19N 53°55' E 009°12'0 0.0
2018-Feb-04 04:58N 53°55' E 009°12'0 0.0
2018-Feb-04 04:28N 53°55' E 009°12'0 0.0
2018-Feb-04 03:58N 53°55' E 009°12'0 0.0
2018-Feb-04 03:28N 53°55' E 009°12'0 0.0
2018-Feb-04 02:58N 53°55' E 009°12'0 0.0
2018-Feb-04 02:28N 53°55' E 009°12'0 0.0
2018-Feb-04 01:43N 53°55' E 009°12'0 0.0
2018-Feb-04 01:19N 53°55' E 009°12'0 0.0
2018-Feb-04 00:52N 53°55' E 009°12'0 0.0
2018-Feb-04 00:25N 53°55' E 009°12'0 0.0
2018-Feb-03 23:55N 53°55' E 009°12'0 0.0
2018-Feb-03 23:25N 53°55' E 009°12'0 0.0
2018-Feb-03 22:55N 53°55' E 009°12'0 0.0
2018-Feb-03 22:22N 53°55' E 009°12'0 0.0
2018-Feb-03 21:58N 53°55' E 009°12'0 0.0
2018-Feb-03 21:25N 53°55' E 009°12'0 0.0
2018-Feb-03 20:58N 53°55' E 009°12'0 0.0
2018-Feb-03 20:28N 53°55' E 009°12'0 0.0
2018-Feb-03 19:58N 53°55' E 009°12'0 0.0
2018-Feb-03 18:28N 53°55' E 009°12'0 0.0
2018-Feb-03 17:58N 53°55' E 009°12'0 0.0
2018-Feb-03 17:25N 53°55' E 009°12'0 0.0
2018-Feb-03 16:58N 53°55' E 009°12'0 0.0
2018-Feb-03 15:58N 53°55' E 009°12'0 0.0
2018-Feb-03 15:28N 53°55' E 009°12'0 0.0
2018-Feb-03 14:58N 53°55' E 009°12'0 0.0
2018-Feb-03 14:25N 53°55' E 009°12'0 0.0
2018-Feb-03 13:49N 53°55' E 009°12'0 0.0
2018-Feb-03 13:25N 53°55' E 009°12'0 0.0
2018-Feb-03 12:58N 53°55' E 009°12'0 0.0
2018-Feb-03 12:25N 53°55' E 009°12'0 0.0
2018-Feb-03 11:58N 53°55' E 009°12'0 0.0
2018-Feb-03 11:28N 53°55' E 009°12'0 0.0
2018-Feb-03 10:46N 53°55' E 009°12'0 0.0
2018-Feb-03 10:28N 53°55' E 009°12'0 0.0
2018-Feb-03 09:58N 53°55' E 009°12'0 0.0
2018-Feb-03 09:25N 53°55' E 009°12'0 0.0
2018-Feb-03 08:55N 53°55' E 009°12'0 0.0
2018-Feb-03 08:28N 53°55' E 009°12'0 0.0
2018-Feb-03 07:55N 53°55' E 009°12'0 0.0
2018-Feb-03 06:28N 53°55' E 009°12'0 0.0
2018-Feb-03 05:58N 53°55' E 009°12'0 0.0
2018-Feb-03 05:28N 53°55' E 009°12'0 0.0
2018-Feb-03 04:55N 53°55' E 009°12'0 0.0
2018-Feb-03 03:55N 53°55' E 009°12'0 0.0
2018-Feb-03 03:28N 53°55' E 009°12'0 0.0
2018-Feb-03 01:58N 53°55' E 009°12'0 0.0
2018-Feb-03 01:28N 53°55' E 009°12'0 0.0
2018-Feb-03 00:58N 53°55' E 009°12'0 0.0
2018-Feb-03 00:28N 53°55' E 009°12'0 0.0
2018-Feb-02 23:58N 53°55' E 009°12'0 0.0
2018-Feb-02 23:28N 53°55' E 009°12'0 0.0
2018-Feb-02 22:58N 53°55' E 009°12'0 0.0
2018-Feb-02 22:25N 53°55' E 009°12'0 0.0
2018-Feb-02 21:55N 53°55' E 009°12'0 0.0
2018-Feb-02 21:22N 53°55' E 009°12'0 0.0
2018-Feb-02 20:58N 53°55' E 009°12'0 0.0
2018-Feb-02 20:28N 53°55' E 009°12'0 0.0
2018-Feb-02 19:58N 53°55' E 009°12'0 0.0
2018-Feb-02 18:55N 53°55' E 009°12'0 0.0
2018-Feb-02 18:25N 53°55' E 009°12'0 0.0
2018-Feb-02 17:58N 53°55' E 009°12'0 0.0
2018-Feb-02 17:28N 53°55' E 009°12'0 0.0
2018-Feb-02 16:58N 53°55' E 009°12'0 0.0
2018-Feb-02 16:28N 53°55' E 009°12'0 0.0
2018-Feb-02 15:28N 53°55' E 009°12'0 0.0
2018-Feb-02 14:28N 53°55' E 009°12'0 0.0
2018-Feb-02 13:52N 53°55' E 009°12'0 0.0
2018-Feb-02 13:19N 53°55' E 009°12'0 0.0
2018-Feb-02 12:55N 53°55' E 009°12'0 0.0
2018-Feb-02 12:28N 53°55' E 009°12'0 0.0
2018-Feb-02 11:55N 53°55' E 009°12'0 0.0
2018-Feb-02 11:25N 53°55' E 009°12'0 0.0
2018-Feb-02 10:58N 53°55' E 009°12'0 0.0
2018-Feb-02 10:28N 53°55' E 009°12'0 0.0
2018-Feb-02 09:58N 53°55' E 009°12'0 0.0
2018-Feb-02 09:28N 53°55' E 009°12'0 0.0
2018-Feb-02 08:58N 53°55' E 009°12'0 0.0
2018-Feb-02 08:28N 53°55' E 009°12'0 0.0
2018-Feb-02 07:55N 53°55' E 009°12'0 0.0
2018-Feb-02 07:28N 53°55' E 009°12'0 0.0
2018-Feb-02 06:58N 53°55' E 009°12'0 0.0
2018-Feb-02 06:28N 53°55' E 009°12'0 0.0
2018-Feb-02 05:58N 53°55' E 009°12'0 0.0
2018-Feb-02 05:28N 53°55' E 009°12'0 0.0
2018-Feb-02 04:55N 53°55' E 009°12'0 0.0
2018-Feb-02 04:28N 53°55' E 009°12'0 0.0
2018-Feb-02 03:58N 53°55' E 009°12'0 0.0
2018-Feb-02 03:30N 53°55' E 009°12'1 1.7
2018-Feb-02 03:01N 53°55' E 009°11'2 3.0
2018-Feb-02 02:30N 53°54' E 009°09'0 0.1
2018-Feb-02 02:00N 53°54' E 009°09'0 0.2
2018-Feb-02 01:30N 53°54' E 009°08'2 5.0
2018-Feb-02 01:00N 53°52' E 009°05'5 9.0
2018-Feb-02 00:30N 53°51' E 008°57'611.5
2018-Feb-02 00:00N 53°50' E 008°48'510.6
2018-Feb-01 23:30N 53°54' E 008°41'510.5
2018-Feb-01 23:00N 53°58' E 008°35'1010.0
2018-Feb-01 22:00N 53°60' E 008°18'612.1
2018-Feb-01 21:30N 53°59' E 008°08'3 1.7
2018-Feb-01 19:28N 54°02' E 008°11'0 0.0
2018-Feb-01 18:43N 54°02' E 008°11'0 0.0
2018-Feb-01 18:16N 54°02' E 008°11'0 0.1
2018-Feb-01 17:58N 54°02' E 008°11'0 0.1
2018-Feb-01 17:28N 54°02' E 008°11'0 0.1
2018-Feb-01 16:46N 54°02' E 008°10'0 0.1
2018-Feb-01 16:28N 54°02' E 008°10'0 0.0
2018-Feb-01 15:34N 54°02' E 008°10'0 0.1
2018-Feb-01 15:19N 54°02' E 008°10'0 0.0
2018-Feb-01 14:52N 54°02' E 008°10'0 0.0
2018-Feb-01 12:16N 54°02' E 008°11'0 0.1
2018-Feb-01 11:55N 54°02' E 008°11'0 0.0
2018-Feb-01 09:19N 54°02' E 008°11'0 0.0
2018-Feb-01 08:58N 54°02' E 008°11'0 0.0
2018-Feb-01 03:55N 54°02' E 008°10'0 0.0
2018-Feb-01 02:55N 54°02' E 008°10'0 0.0
2018-Feb-01 02:07N 54°02' E 008°10'0 0.1
2018-Feb-01 01:55N 54°02' E 008°10'0 0.1
2018-Feb-01 01:25N 54°02' E 008°11'0 0.0
2018-Feb-01 00:49N 54°02' E 008°11'0 0.1
2018-Feb-01 00:25N 54°02' E 008°11'0 0.0
2018-Jan-31 20:01N 54°02' E 008°11'0 0.1
2018-Jan-31 19:55N 54°02' E 008°11'0 0.0
2018-Jan-31 19:25N 54°02' E 008°11'0 0.0
2018-Jan-31 18:55N 54°02' E 008°11'0 0.0
2018-Jan-31 16:31N 54°02' E 008°11'0 0.1
2018-Jan-31 16:19N 54°02' E 008°11'0 0.1
2018-Jan-31 15:49N 54°02' E 008°10'0 0.1
2018-Jan-31 15:25N 54°02' E 008°10'0 0.0
2018-Jan-31 14:49N 54°02' E 008°10'0 0.1
2018-Jan-31 14:19N 54°02' E 008°10'0 0.0
2018-Jan-31 12:49N 54°02' E 008°10'0 0.0
2018-Jan-30 15:52N 54°02' E 008°10'0 0.2
2018-Jan-30 15:22N 54°02' E 008°10'0 0.1
2018-Jan-30 14:31N 54°02' E 008°10'0 0.0
2018-Jan-30 14:22N 54°02' E 008°10'0 0.0
2018-Jan-30 13:28N 54°02' E 008°10'0 0.1
2018-Jan-30 12:28N 54°02' E 008°10'0 0.0
2018-Jan-30 06:34N 54°02' E 008°11'0 0.0
2018-Jan-30 06:22N 54°02' E 008°11'0 0.0
2018-Jan-30 05:49N 54°02' E 008°11'0 0.0
2018-Jan-30 05:28N 54°02' E 008°11'0 0.0
2018-Jan-30 04:22N 54°02' E 008°11'0 0.1
2018-Jan-30 03:49N 54°02' E 008°11'0 0.1
2018-Jan-30 03:25N 54°02' E 008°11'0 0.1
2018-Jan-30 02:58N 54°02' E 008°11'0 0.1
2018-Jan-30 02:19N 54°02' E 008°10'  
Track history (hours):
 
Tides and Currents Weather Stations Pressure Air Temp Water Temp Dewpoint Dewpoint Depression Visibility Wind Speed Wind Dir Waves Ship Positions

Lan Bao Hai

Last reported at 2018-Feb-09 02:00 UTC. Time now 2018-Feb-25 23:21 UTC.
Position N 49°55' W 003°10'.
Warning: this ship's position is 16 days out of date.

Length 180 m; draft 10.4 m.

Type: Cargo ship. MMSI: 477713300.

Date/timePositionNaut miles runAvg speedWind from/ knotsBaromVisibWave heightAir tempDewpointWater temp
2018-Feb-09 02:00N 49°55' W 003°10'4 9.0
2018-Feb-09 01:30N 49°57' W 003°04'4 8.0
2018-Feb-09 01:00N 49°59' W 002°59'4 9.0
2018-Feb-09 00:30N 50°00' W 002°52'4611.4
2018-Feb-08 20:30N 50°12' W 001°43'713.8
2018-Feb-08 20:00N 50°14' W 001°33'8112.5
2018-Feb-08 13:30N 50°36' E 000°29'612.1
2018-Feb-08 13:00N 50°38' E 000°38'612.7
2018-Feb-08 12:30N 50°42' E 000°46'713.3
2018-Feb-08 12:00N 50°46' E 000°54'2713.8
2018-Feb-08 10:00N 51°04' E 001°27'1312.6
2018-Feb-08 09:00N 51°12' E 001°42'2911.8
2018-Feb-08 06:30N 51°36' E 002°10'25512.1
2018-Feb-07 09:30N 54°01' E 007°57'613.0
2018-Feb-07 09:00N 54°01' E 008°08'612.3
2018-Feb-07 08:30N 53°60' E 008°19'814.8
2018-Feb-07 08:00N 53°58' E 008°31'713.7
2018-Feb-07 07:30N 53°55' E 008°41'611.8
2018-Feb-07 07:00N 53°50' E 008°48'612.0
2018-Feb-07 06:30N 53°51' E 008°58'5 9.6
2018-Feb-07 06:00N 53°53' E 009°05'2 4.5
2018-Feb-07 05:30N 53°54' E 009°09'0 0.1
2018-Feb-07 05:00N 53°54' E 009°09'1 1.7
2018-Feb-07 04:30N 53°54' E 009°10'1 1.4
2018-Feb-07 03:29N 53°55' E 009°12'0 0.0
2018-Feb-07 02:59N 53°55' E 009°12'0 0.0
2018-Feb-07 02:29N 53°55' E 009°12'0 0.0
2018-Feb-07 01:59N 53°55' E 009°12'0 0.0
2018-Feb-07 01:29N 53°55' E 009°12'0 0.0
2018-Feb-07 00:59N 53°55' E 009°12'0 0.0
2018-Feb-07 00:29N 53°55' E 009°12'0 0.0
2018-Feb-06 23:56N 53°55' E 009°12'0 0.0
2018-Feb-06 23:29N 53°55' E 009°12'0 0.0
2018-Feb-06 22:59N 53°55' E 009°12'0 0.0
2018-Feb-06 22:26N 53°55' E 009°12'0 0.0
2018-Feb-06 21:59N 53°55' E 009°12'0 0.0
2018-Feb-06 21:26N 53°55' E 009°12'0 0.0
2018-Feb-06 20:59N 53°55' E 009°12'0 0.0
2018-Feb-06 20:26N 53°55' E 009°12'0 0.0
2018-Feb-06 19:59N 53°55' E 009°12'0 0.0
2018-Feb-06 19:29N 53°55' E 009°12'0 0.0
2018-Feb-06 18:59N 53°55' E 009°12'0 0.0
2018-Feb-06 18:29N 53°55' E 009°12'0 0.0
2018-Feb-06 17:44N 53°55' E 009°12'0 0.0
2018-Feb-06 17:26N 53°55' E 009°12'0 0.0
2018-Feb-06 16:56N 53°55' E 009°12'0 0.0
2018-Feb-06 16:29N 53°55' E 009°12'0 0.0
2018-Feb-06 15:59N 53°55' E 009°12'0 0.0
2018-Feb-06 15:29N 53°55' E 009°12'0 0.0
2018-Feb-06 14:59N 53°55' E 009°12'0 0.0
2018-Feb-06 14:29N 53°55' E 009°12'0 0.0
2018-Feb-06 13:59N 53°55' E 009°12'0 0.0
2018-Feb-06 13:26N 53°55' E 009°12'0 0.0
2018-Feb-06 12:56N 53°55' E 009°12'0 0.0
2018-Feb-06 12:29N 53°55' E 009°12'0 0.0
2018-Feb-06 11:59N 53°55' E 009°12'0 0.0
2018-Feb-06 11:23N 53°55' E 009°12'0 0.0
2018-Feb-06 10:59N 53°55' E 009°12'0 0.0
2018-Feb-06 10:29N 53°55' E 009°12'0 0.0
2018-Feb-06 09:56N 53°55' E 009°12'0 0.0
2018-Feb-06 09:29N 53°55' E 009°12'0 0.0
2018-Feb-06 08:59N 53°55' E 009°12'0 0.0
2018-Feb-06 08:29N 53°55' E 009°12'0 0.0
2018-Feb-06 07:59N 53°55' E 009°12'0 0.0
2018-Feb-06 07:29N 53°55' E 009°12'0 0.0
2018-Feb-06 06:59N 53°55' E 009°12'0 0.0
2018-Feb-06 06:29N 53°55' E 009°12'0 0.0
2018-Feb-06 05:59N 53°55' E 009°12'0 0.0
2018-Feb-06 05:29N 53°55' E 009°12'0 0.0
2018-Feb-06 04:59N 53°55' E 009°12'0 0.0
2018-Feb-06 04:29N 53°55' E 009°12'0 0.0
2018-Feb-06 03:59N 53°55' E 009°12'0 0.0
2018-Feb-06 03:29N 53°55' E 009°12'0 0.0
2018-Feb-06 02:59N 53°55' E 009°12'0 0.0
2018-Feb-06 02:29N 53°55' E 009°12'0 0.0
2018-Feb-06 01:59N 53°55' E 009°12'0 0.0
2018-Feb-06 01:23N 53°55' E 009°12'0 0.0
2018-Feb-06 00:59N 53°55' E 009°12'0 0.0
2018-Feb-06 00:29N 53°55' E 009°12'0 0.0
2018-Feb-05 23:59N 53°55' E 009°12'0 0.0
2018-Feb-05 23:29N 53°55' E 009°12'0 0.0
2018-Feb-05 22:59N 53°55' E 009°12'0 0.0
2018-Feb-05 22:29N 53°55' E 009°12'0 0.0
2018-Feb-05 21:59N 53°55' E 009°12'0 0.0
2018-Feb-05 21:26N 53°55' E 009°12'0 0.0
2018-Feb-05 20:56N 53°55' E 009°12'0 0.0
2018-Feb-05 20:26N 53°55' E 009°12'0 0.0
2018-Feb-05 19:59N 53°55' E 009°12'0 0.0
2018-Feb-05 19:29N 53°55' E 009°12'0 0.0
2018-Feb-05 18:56N 53°55' E 009°12'0 0.0
2018-Feb-05 18:29N 53°55' E 009°12'0 0.0
2018-Feb-05 17:59N 53°55' E 009°12'0 0.0
2018-Feb-05 17:29N 53°55' E 009°12'0 0.0
2018-Feb-05 16:59N 53°55' E 009°12'0 0.0
2018-Feb-05 15:58N 53°55' E 009°12'0 0.0
2018-Feb-05 15:16N 53°55' E 009°12'0 0.0
2018-Feb-05 14:58N 53°55' E 009°12'0 0.0
2018-Feb-05 14:28N 53°55' E 009°12'0 0.0
2018-Feb-05 13:58N 53°55' E 009°12'0 0.0
2018-Feb-05 13:28N 53°55' E 009°12'0 0.0
2018-Feb-05 12:58N 53°55' E 009°12'0 0.0
2018-Feb-05 12:25N 53°55' E 009°12'0 0.0
2018-Feb-05 11:55N 53°55' E 009°12'0 0.0
2018-Feb-05 11:28N 53°55' E 009°12'0 0.0
2018-Feb-05 10:58N 53°55' E 009°12'0 0.0
2018-Feb-05 10:19N 53°55' E 009°12'0 0.0
2018-Feb-05 09:58N 53°55' E 009°12'0 0.0
2018-Feb-05 09:28N 53°55' E 009°12'0 0.0
2018-Feb-05 08:55N 53°55' E 009°12'0 0.0
2018-Feb-05 08:28N 53°55' E 009°12'0 0.0
2018-Feb-05 07:58N 53°55' E 009°12'0 0.0
2018-Feb-05 07:25N 53°55' E 009°12'0 0.0
2018-Feb-05 06:58N 53°55' E 009°12'0 0.0
2018-Feb-05 06:28N 53°55' E 009°12'0 0.0
2018-Feb-05 05:25N 53°55' E 009°12'0 0.0
2018-Feb-05 04:58N 53°55' E 009°12'0 0.0
2018-Feb-05 04:28N 53°55' E 009°12'0 0.0
2018-Feb-05 03:55N 53°55' E 009°12'0 0.0
2018-Feb-05 03:22N 53°55' E 009°12'0 0.0
2018-Feb-05 02:49N 53°55' E 009°12'0 0.0
2018-Feb-05 02:22N 53°55' E 009°12'0 0.0
2018-Feb-05 01:58N 53°55' E 009°12'0 0.0
2018-Feb-05 01:28N 53°55' E 009°12'0 0.0
2018-Feb-05 00:55N 53°55' E 009°12'0 0.0
2018-Feb-05 00:28N 53°55' E 009°12'0 0.0
2018-Feb-04 23:55N 53°55' E 009°12'0 0.0
2018-Feb-04 23:28N 53°55' E 009°12'0 0.0
2018-Feb-04 22:58N 53°55' E 009°12'0 0.0
2018-Feb-04 22:25N 53°55' E 009°12'0 0.0
2018-Feb-04 21:58N 53°55' E 009°12'0 0.0
2018-Feb-04 21:25N 53°55' E 009°12'0 0.0
2018-Feb-04 20:55N 53°55' E 009°12'0 0.0
2018-Feb-04 19:58N 53°55' E 009°12'0 0.0
2018-Feb-04 19:28N 53°55' E 009°12'0 0.0
2018-Feb-04 18:58N 53°55' E 009°12'0 0.0
2018-Feb-04 18:28N 53°55' E 009°12'0 0.0
2018-Feb-04 17:58N 53°55' E 009°12'0 0.0
2018-Feb-04 17:28N 53°55' E 009°12'0 0.0
2018-Feb-04 15:25N 53°55' E 009°12'0 0.0
2018-Feb-04 14:55N 53°55' E 009°12'0 0.0
2018-Feb-04 14:25N 53°55' E 009°12'0 0.0
2018-Feb-04 13:58N 53°55' E 009°12'0 0.0
2018-Feb-04 13:25N 53°55' E 009°12'0 0.0
2018-Feb-04 12:55N 53°55' E 009°12'0 0.0
2018-Feb-04 12:28N 53°55' E 009°12'0 0.0
2018-Feb-04 11:58N 53°55' E 009°12'0 0.0
2018-Feb-04 11:28N 53°55' E 009°12'0 0.0
2018-Feb-04 09:58N 53°55' E 009°12'0 0.0
2018-Feb-04 08:58N 53°55' E 009°12'0 0.0
2018-Feb-04 08:22N 53°55' E 009°12'0 0.0
2018-Feb-04 07:58N 53°55' E 009°12'0 0.0
2018-Feb-04 07:28N 53°55' E 009°12'0 0.0
2018-Feb-04 06:55N 53°55' E 009°12'0 0.0
2018-Feb-04 06:28N 53°55' E 009°12'0 0.0
2018-Feb-04 05:58N 53°55' E 009°12'0 0.0
2018-Feb-04 05:19N 53°55' E 009°12'0 0.0
2018-Feb-04 04:58N 53°55' E 009°12'0 0.0
2018-Feb-04 04:28N 53°55' E 009°12'0 0.0
2018-Feb-04 03:58N 53°55' E 009°12'0 0.0
2018-Feb-04 03:28N 53°55' E 009°12'0 0.0
2018-Feb-04 02:58N 53°55' E 009°12'0 0.0
2018-Feb-04 02:28N 53°55' E 009°12'0 0.0
2018-Feb-04 01:43N 53°55' E 009°12'0 0.0
2018-Feb-04 01:19N 53°55' E 009°12'0 0.0
2018-Feb-04 00:52N 53°55' E 009°12'0 0.0
2018-Feb-04 00:25N 53°55' E 009°12'0 0.0
2018-Feb-03 23:55N 53°55' E 009°12'0 0.0
2018-Feb-03 23:25N 53°55' E 009°12'0 0.0
2018-Feb-03 22:55N 53°55' E 009°12'0 0.0
2018-Feb-03 22:22N 53°55' E 009°12'0 0.0
2018-Feb-03 21:58N 53°55' E 009°12'0 0.0
2018-Feb-03 21:25N 53°55' E 009°12'0 0.0
2018-Feb-03 20:58N 53°55' E 009°12'0 0.0
2018-Feb-03 20:28N 53°55' E 009°12'0 0.0
2018-Feb-03 19:58N 53°55' E 009°12'0 0.0
2018-Feb-03 18:28N 53°55' E 009°12'0 0.0
2018-Feb-03 17:58N 53°55' E 009°12'0 0.0
2018-Feb-03 17:25N 53°55' E 009°12'0 0.0
2018-Feb-03 16:58N 53°55' E 009°12'0 0.0
2018-Feb-03 15:58N 53°55' E 009°12'0 0.0
2018-Feb-03 15:28N 53°55' E 009°12'0 0.0
2018-Feb-03 14:58N 53°55' E 009°12'0 0.0
2018-Feb-03 14:25N 53°55' E 009°12'0 0.0
2018-Feb-03 13:49N 53°55' E 009°12'0 0.0
2018-Feb-03 13:25N 53°55' E 009°12'0 0.0
2018-Feb-03 12:58N 53°55' E 009°12'0 0.0
2018-Feb-03 12:25N 53°55' E 009°12'0 0.0
2018-Feb-03 11:58N 53°55' E 009°12'0 0.0
2018-Feb-03 11:28N 53°55' E 009°12'0 0.0
2018-Feb-03 10:46N 53°55' E 009°12'0 0.0
2018-Feb-03 10:28N 53°55' E 009°12'0 0.0
2018-Feb-03 09:58N 53°55' E 009°12'0 0.0
2018-Feb-03 09:25N 53°55' E 009°12'0 0.0
2018-Feb-03 08:55N 53°55' E 009°12'0 0.0
2018-Feb-03 08:28N 53°55' E 009°12'0 0.0
2018-Feb-03 07:55N 53°55' E 009°12'0 0.0
2018-Feb-03 06:28N 53°55' E 009°12'0 0.0
2018-Feb-03 05:58N 53°55' E 009°12'0 0.0
2018-Feb-03 05:28N 53°55' E 009°12'0 0.0
2018-Feb-03 04:55N 53°55' E 009°12'0 0.0
2018-Feb-03 03:55N 53°55' E 009°12'0 0.0
2018-Feb-03 03:28N 53°55' E 009°12'0 0.0
2018-Feb-03 01:58N 53°55' E 009°12'0 0.0
2018-Feb-03 01:28N 53°55' E 009°12'0 0.0
2018-Feb-03 00:58N 53°55' E 009°12'0 0.0
2018-Feb-03 00:28N 53°55' E 009°12'0 0.0
2018-Feb-02 23:58N 53°55' E 009°12'0 0.0
2018-Feb-02 23:28N 53°55' E 009°12'0 0.0
2018-Feb-02 22:58N 53°55' E 009°12'0 0.0
2018-Feb-02 22:25N 53°55' E 009°12'0 0.0
2018-Feb-02 21:55N 53°55' E 009°12'0 0.0
2018-Feb-02 21:22N 53°55' E 009°12'0 0.0
2018-Feb-02 20:58N 53°55' E 009°12'0 0.0
2018-Feb-02 20:28N 53°55' E 009°12'0 0.0
2018-Feb-02 19:58N 53°55' E 009°12'0 0.0
2018-Feb-02 18:55N 53°55' E 009°12'0 0.0
2018-Feb-02 18:25N 53°55' E 009°12'0 0.0
2018-Feb-02 17:58N 53°55' E 009°12'0 0.0
2018-Feb-02 17:28N 53°55' E 009°12'0 0.0
2018-Feb-02 16:58N 53°55' E 009°12'0 0.0
2018-Feb-02 16:28N 53°55' E 009°12'0 0.0
2018-Feb-02 15:28N 53°55' E 009°12'0 0.0
2018-Feb-02 14:28N 53°55' E 009°12'0 0.0
2018-Feb-02 13:52N 53°55' E 009°12'0 0.0
2018-Feb-02 13:19N 53°55' E 009°12'0 0.0
2018-Feb-02 12:55N 53°55' E 009°12'0 0.0
2018-Feb-02 12:28N 53°55' E 009°12'0 0.0
2018-Feb-02 11:55N 53°55' E 009°12'0 0.0
2018-Feb-02 11:25N 53°55' E 009°12'0 0.0
2018-Feb-02 10:58N 53°55' E 009°12'0 0.0
2018-Feb-02 10:28N 53°55' E 009°12'0 0.0
2018-Feb-02 09:58N 53°55' E 009°12'0 0.0
2018-Feb-02 09:28N 53°55' E 009°12'0 0.0
2018-Feb-02 08:58N 53°55' E 009°12'0 0.0
2018-Feb-02 08:28N 53°55' E 009°12'0 0.0
2018-Feb-02 07:55N 53°55' E 009°12'0 0.0
2018-Feb-02 07:28N 53°55' E 009°12'0 0.0
2018-Feb-02 06:58N 53°55' E 009°12'0 0.0
2018-Feb-02 06:28N 53°55' E 009°12'0 0.0
2018-Feb-02 05:58N 53°55' E 009°12'0 0.0
2018-Feb-02 05:28N 53°55' E 009°12'0 0.0
2018-Feb-02 04:55N 53°55' E 009°12'0 0.0
2018-Feb-02 04:28N 53°55' E 009°12'0 0.0
2018-Feb-02 03:58N 53°55' E 009°12'0 0.0
2018-Feb-02 03:30N 53°55' E 009°12'1 1.7
2018-Feb-02 03:01N 53°55' E 009°11'2 3.0
2018-Feb-02 02:30N 53°54' E 009°09'0 0.1
2018-Feb-02 02:00N 53°54' E 009°09'0 0.2
2018-Feb-02 01:30N 53°54' E 009°08'2 5.0
2018-Feb-02 01:00N 53°52' E 009°05'5 9.0
2018-Feb-02 00:30N 53°51' E 008°57'611.5
2018-Feb-02 00:00N 53°50' E 008°48'510.6
2018-Feb-01 23:30N 53°54' E 008°41'510.5
2018-Feb-01 23:00N 53°58' E 008°35'1010.0
2018-Feb-01 22:00N 53°60' E 008°18'612.1
2018-Feb-01 21:30N 53°59' E 008°08'3 1.7
2018-Feb-01 19:28N 54°02' E 008°11'0 0.0
2018-Feb-01 18:43N 54°02' E 008°11'0 0.0
2018-Feb-01 18:16N 54°02' E 008°11'0 0.1
2018-Feb-01 17:58N 54°02' E 008°11'0 0.1
2018-Feb-01 17:28N 54°02' E 008°11'0 0.1
2018-Feb-01 16:46N 54°02' E 008°10'0 0.1
2018-Feb-01 16:28N 54°02' E 008°10'0 0.0
2018-Feb-01 15:34N 54°02' E 008°10'0 0.1
2018-Feb-01 15:19N 54°02' E 008°10'0 0.0
2018-Feb-01 14:52N 54°02' E 008°10'0 0.0
2018-Feb-01 12:16N 54°02' E 008°11'0 0.1
2018-Feb-01 11:55N 54°02' E 008°11'0 0.0
2018-Feb-01 09:19N 54°02' E 008°11'0 0.0
2018-Feb-01 08:58N 54°02' E 008°11'0 0.0
2018-Feb-01 03:55N 54°02' E 008°10'0 0.0
2018-Feb-01 02:55N 54°02' E 008°10'0 0.0
2018-Feb-01 02:07N 54°02' E 008°10'0 0.1
2018-Feb-01 01:55N 54°02' E 008°10'0 0.1
2018-Feb-01 01:25N 54°02' E 008°11'0 0.0
2018-Feb-01 00:49N 54°02' E 008°11'0 0.1
2018-Feb-01 00:25N 54°02' E 008°11'0 0.0
2018-Jan-31 20:01N 54°02' E 008°11'0 0.1
2018-Jan-31 19:55N 54°02' E 008°11'0 0.0
2018-Jan-31 19:25N 54°02' E 008°11'0 0.0
2018-Jan-31 18:55N 54°02' E 008°11'0 0.0
2018-Jan-31 16:31N 54°02' E 008°11'0 0.1
2018-Jan-31 16:19N 54°02' E 008°11'0 0.1
2018-Jan-31 15:49N 54°02' E 008°10'0 0.1
2018-Jan-31 15:25N 54°02' E 008°10'0 0.0
2018-Jan-31 14:49N 54°02' E 008°10'0 0.1
2018-Jan-31 14:19N 54°02' E 008°10'0 0.0
2018-Jan-31 12:49N 54°02' E 008°10'0 0.0
2018-Jan-30 15:52N 54°02' E 008°10'0 0.2
2018-Jan-30 15:22N 54°02' E 008°10'0 0.1
2018-Jan-30 14:31N 54°02' E 008°10'0 0.0
2018-Jan-30 14:22N 54°02' E 008°10'0 0.0
2018-Jan-30 13:28N 54°02' E 008°10'0 0.1
2018-Jan-30 12:28N 54°02' E 008°10'0 0.0
2018-Jan-30 06:34N 54°02' E 008°11'0 0.0
2018-Jan-30 06:22N 54°02' E 008°11'0 0.0
2018-Jan-30 05:49N 54°02' E 008°11'0 0.0
2018-Jan-30 05:28N 54°02' E 008°11'0 0.0
2018-Jan-30 04:22N 54°02' E 008°11'0 0.1
2018-Jan-30 03:49N 54°02' E 008°11'0 0.1
2018-Jan-30 03:25N 54°02' E 008°11'0 0.1
2018-Jan-30 02:58N 54°02' E 008°11'0 0.1
2018-Jan-30 02:19N 54°02' E 008°10'  

Dump ship's entire track history